Terminal Aerodrome Forecast
Issued by NWS

Current Version | Previous Version | Graphics & Text | Print | Product List | Glossary On
Versions: 1 2 3 4 5 6 7 8 9 10 11 12 13 14 15 16 17 18
000
FTUS41 KPBZ 192320
TAFHLG
TAF
KHLG 192320Z 2000/2024 21010KT P6SM SKC
     FM200600 22010KT P6SM FEW250 WS020/24040KT
     FM201500 23012G23KT P6SM SCT030
     FM202200 24009KT P6SM BKN030=

USA.gov is the U.S. government's official web portal to all federal, state and local government web resources and services.